AirNav   Bose ProFlight Aviation Headset
 
 823 users online  

M24 Dean Griffin Memorial Airport
Wiggins, Mississippi, USA

GOING TO WIGGINS?


FAA INFORMATION EFFECTIVE 13 SEPTEMBER 2018

Location

FAA Identifier: M24
Lat/Long: 30-50-34.8000N / 089-09-41.4000W
30-50.580000N / 089-09.690000W
30.8430000 / -89.1615000
(estimated)
Elevation: 273 ft. / 83.2 m (surveyed)
Variation: 02E (1985)
From city: 1 mile W of WIGGINS, MS
Time zone: UTC -5 (UTC -6 during Standard Time)
Zip code: 39577

Airport Operations

Airport use: Open to the public
Control tower: no
ARTCC: HOUSTON CENTER
FSS: GREENWOOD FLIGHT SERVICE STATION
NOTAMs facility: GWO (NOTAM-D service available)
Attendance: 0800-1700
Wind indicator: lighted
Segmented circle: no
Lights: ACTVT MIRL RWY 17/35 - CTAF. PAPI RWY 17 & 35 OPRS CONSLY.
Beacon: white-green (lighted land airport)
Operates sunset to sunrise.

Airport Communications

CTAF/UNICOM: 122.8

Nearby radio navigation aids

VOR radial/distance  VOR name  Freq  Var
GPTr349/26.5GULFPORT VORTAC109.0002E
PCUr055/33.9PICAYUNE VOR/DME112.2005E
LBYr160/35.7EATON VORTAC110.6005E
GCVr241/38.0GREENE COUNTY VORTAC115.7005E

 
NDB name  Hdg/Dist  Freq  Var  ID
BOGALUSA094/36.235300WGVB --. ...- -...

Airport Services

Fuel available: 100LL
FUEL AVBL 24/7 WITH CREDIT CARD.
Parking: tiedowns
Airframe service: NONE
Bottled oxygen: NONE
Bulk oxygen: NONE

Runway Information

Runway 17/35

Dimensions: 3500 x 75 ft. / 1067 x 23 m
Surface: asphalt, in good condition
Weight bearing capacity: 
Single wheel: 20.0
Runway edge lights: medium intensity
Gradient: N
RUNWAY 17  RUNWAY 35
Latitude: 30-50.866725N30-50.293587N
Longitude: 089-09.729418W089-09.649293W
Elevation: 273.0 ft.245.3 ft.
Gradient: 0.6%0.8% UP
Traffic pattern: leftleft
Runway heading: 171 magnetic, 173 true351 magnetic, 353 true
Displaced threshold: 500 ft.no
Markings: basic, in good conditionbasic, in good condition
Visual slope indicator: 2-light PAPI on left (3.00 degrees glide path)2-light PAPI on left (3.00 degrees glide path)
Touchdown point: yes, no lightsyes, no lights
Obstructions: 41 ft. tree, 1200 ft. from runway, 150 ft. left of centerline, 24:1 slope to clear
APPROACH SLOPE 36:1 TO THE DSPLCD THLD.
62 ft. trees, 1440 ft. from runway, 20:1 slope to clear

Airport Ownership and Management from official FAA records

Ownership: Publicly-owned
Owner: CITY OF WIGGINS-STONE CO
117 FIRST STREET
WIGGINS, MS 39577
Phone 601-928-7221
Manager: AIRPORT BOARD
P.O. BOX 219
WIGGINS, MS 39577
Phone 601-928-7221
MR. DURON HATTEN, SEC/TREAS OF ARPT BOARD.

Airport Operational Statistics

Aircraft based on the field: 10
Single engine airplanes: 9
Ultralights: 1
    
Aircraft operations: avg 35/day *
51% local general aviation
45% transient general aviation
4% military
* for 12-month period ending 10 May 2018

Instrument Procedures

There are no published instrument procedures at M24.

Some nearby airports with instrument procedures:

M13 - Poplarville-Pearl River County Airport (18 nm W)
KHBG - Hattiesburg Bobby L Chain Municipal Airport (26 nm N)
KGPT - Gulfport-Biloxi International Airport (27 nm S)
KBIX - Keesler Air Force Base (29 nm SE)
KHSA - Stennis International Airport (32 nm SW)
 
Loc | Ops | Rwys | IFR | FBO | Links
Com | Nav | Svcs | Stats | Notes


 
Area around M24 (Dean Griffin Memorial Airport)
 
Road maps at: MapQuest Bing Google
 
Aerial photo
No photo
 
Sectional chart

 
Airport distance calculator
Flying to Dean Griffin Memorial Airport? Find the distance to fly.

From to M24

Sunrise and sunset
Times for 25-Sep-2018
 Local
(UTC-5)
 Zulu
(UTC)
Morning civil twilight06:2411:24
Sunrise06:4811:48
Sunset18:4923:49
Evening civil twilight19:1300:13

Current date and time
Zulu (UTC)  25-Sep-2018 11:56:17
Local (UTC-5)  25-Sep-2018 06:56:17
 
METAR
KHBG 
26nm N 
251110Z AUTO 00000KT 10SM BKN002 OVC100 23/23 A3004 RMK AO2 T02330228 TSNO
KGPT 
26nm S 
251053Z 00000KT 10SM CLR 25/24 A3000 RMK AO2 SLP158 T02500239 $
KBIX 
29nm SE 
251126Z AUTO 06005KT 10SM SCT023 25/24 A3002 RMK AO2 SLP168
KHSA 
32nm SW 
250150Z 00000KT 7SM SKC 24/23 A2998
KBXA 
36nm W 
251135Z AUTO 00000KT 10SM CLR 23/21 A3002 RMK AO2 LTG DSNT SE T02270210
KPIB 
38nm N 
251056Z AUTO 00000KT 6SM BR SCT002 23/23 A3004 RMK AO2 SLP171 T02330228 PNO $
KLUL 
38nm N 
251135Z AUTO 13003KT 10SM OVC003 24/24 A3005 RMK AO2 T02350235
KPQL 
40nm SE 
251130Z 00000KT 10SM VCTS SCT024 BKN050 24/23 A3003 RMK AO2 LTG DSNT E AND SE T02440228
K0R0 
43nm NW 
251135Z AUTO 00000KT 6SM BR CLR 22/21 A3007 RMK AO2
KASD 
47nm SW 
251053Z AUTO 00000KT 10SM CLR 23/22 A3000 RMK AO2 SLP159 T02330222
TAF
KHBG 
26nm N 
250614Z 2506/2606 00000KT P6SM FEW005 SCT025 FM251000 00000KT P6SM SCT005 BKN015 FM251400 16005KT P6SM VCSH BKN035 FM251900 17006KT P6SM -SHRA VCTS SCT035CB BKN050 FM260000 17004KT P6SM VCSH SCT035
KGPT 
26nm S 
250520Z 2506/2606 16008KT P6SM VCTS SCT025CB BKN100 FM251500 16007KT P6SM SCT025 BKN100 PROB30 2515/2518 4SM TSRA BKN025CB BKN030 FM251800 15008KT P6SM SHRA VCTS SCT030CB BKN090 FM260000 16008KT P6SM SCT025 BKN100 PROB30 2600/2606 4SM TSRA BKN025CB OVC040
KBIX 
29nm SE 
251000Z 2510/2616 VRB06KT 9999 FEW020 QNH2996INS BECMG 2517/2518 14006KT 8000 -SHRA BKN020 QNH2994INS TEMPO 2518/2523 VRB12G18KT 4800 -TSRA BKN015CB BECMG 2601/2602 VRB06KT 9999 NSW SCT030 QNH3003INS TX29/2521Z TN25/2512Z
NOTAMs
Click for the latest NOTAMs
NOTAMs are issued by the DoD/FAA and will open in a separate window not controlled by AirNav.

 

 
 

FBO, Fuel Providers, and Aircraft Ground Support

  
 Business Name 
 
 Contact 
 
 Services / Description 
 
Fuel Prices
 
Comments
  
Dean Griffin Memorial Airport 601-928-6495
no information available

If you are affiliated with Dean Griffin Memorial Airport and would like to show here your services, contact info, web link, logo, and more, click here
100LL
SS $4.85 
 Updated 21-Sep-2018
 
   write
SS=Self service
Update Fuel Prices
 

Would you like to see your business listed on this page?

 If your business provides an interesting product or service to pilots, flight crews, aircraft, or users of the Dean Griffin Memorial Airport, you should consider listing it here.  To start the listing process, click on the button below
 
Add a business
 

Other Pages about Dean Griffin Memorial Airport

Update a link
 
Copyright © AirNav, LLC. All rights reserved. Privacy Policy  Contact